Time;durP1;ratioP1;P1;durP2;ratioP2;P2;SDS_P1;SDS_P2;PMS_P1;PMS_P2;Temp;Humidity;BMP_temperature;BMP_pressure;BME280_temperature;BME280_humidity;BME280_pressure;Samples;Min_cycle;Max_cycle;Signal;HPM_P1;HPM_P2
2022/05/22 00:00:04;;;;;;;7.00;4.55;;;;;;;;;;2039933;29;20152;-58
2022/05/22 00:01:14;;;;;;;6.18;4.53;;;;;;;;;;2041270;29;20039;-59
2022/05/22 00:02:15;;;;;;;6.93;4.28;;;;;;;;;;2038510;29;20035;-60
2022/05/22 00:03:15;;;;;;;9.52;5.07;;;;;;;;;;2031828;29;20458;-59
2022/05/22 00:04:16;;;;;;;6.97;4.55;;;;;;;;;;2041402;29;20039;-59
2022/05/22 00:05:18;;;;;;;8.75;4.60;;;;;;;;;;2047449;29;20489;-61
2022/05/22 00:06:21;;;;;;;6.70;4.28;;;;;;;;;;2040946;29;20035;-61
2022/05/22 00:07:21;;;;;;;7.85;4.75;;;;;;;;;;2032336;29;20048;-60
2022/05/22 00:08:22;;;;;;;8.88;5.15;;;;;;;;;;2024144;29;20049;-59
2022/05/22 00:09:24;;;;;;;8.13;4.60;;;;;;;;;;2039252;29;20040;-61
2022/05/22 00:10:25;;;;;;;11.63;5.25;;;;;;;;;;2032757;29;20044;-59
2022/05/22 00:11:26;;;;;;;8.10;4.75;;;;;;;;;;2032238;29;20055;-60
2022/05/22 00:12:27;;;;;;;9.07;5.05;;;;;;;;;;2047884;29;20035;-59
2022/05/22 00:13:28;;;;;;;10.98;5.00;;;;;;;;;;2040267;29;20044;-59
2022/05/22 00:14:28;;;;;;;8.00;4.53;;;;;;;;;;2031882;29;20071;-60
2022/05/22 00:15:29;;;;;;;8.25;4.30;;;;;;;;;;2031853;29;20071;-60
2022/05/22 00:16:37;;;;;;;8.85;5.00;;;;;;;;;;2040227;29;20051;-60
2022/05/22 00:17:40;;;;;;;7.78;4.40;;;;;;;;;;2041206;29;20094;-60
2022/05/22 00:18:40;;;;;;;9.23;5.00;;;;;;;;;;2032144;29;20483;-61
2022/05/22 00:19:41;;;;;;;11.18;4.60;;;;;;;;;;2031514;29;20522;-62
2022/05/22 00:20:43;;;;;;;6.95;4.57;;;;;;;;;;2036725;29;20052;-59
2022/05/22 00:21:43;;;;;;;7.22;4.20;;;;;;;;;;2040248;29;20139;-61
2022/05/22 00:22:49;;;;;;;8.23;4.35;;;;;;;;;;2048369;29;20047;-60
2022/05/22 00:23:50;;;;;;;13.35;5.25;;;;;;;;;;2040470;29;20526;-59
2022/05/22 00:24:52;;;;;;;6.35;4.40;;;;;;;;;;2032268;29;20067;-61
2022/05/22 00:25:56;;;;;;;7.07;4.57;;;;;;;;;;2032257;29;20430;-60
2022/05/22 00:26:57;;;;;;;7.25;5.03;;;;;;;;;;2032782;29;20051;-59
2022/05/22 00:28:00;;;;;;;8.15;4.75;;;;;;;;;;2033036;29;20047;-60
2022/05/22 00:29:01;;;;;;;7.95;4.90;;;;;;;;;;2047268;29;20103;-59
2022/05/22 00:30:02;;;;;;;7.22;4.57;;;;;;;;;;2047171;29;20055;-60
2022/05/22 00:31:03;;;;;;;9.90;4.53;;;;;;;;;;2048229;29;20122;-60
2022/05/22 00:32:03;;;;;;;7.68;5.13;;;;;;;;;;2039989;29;20102;-61
2022/05/22 00:33:06;;;;;;;9.57;4.75;;;;;;;;;;2039741;29;20039;-60
2022/05/22 00:34:07;;;;;;;12.23;5.03;;;;;;;;;;2031915;29;20627;-60
2022/05/22 00:35:08;;;;;;;10.35;5.00;;;;;;;;;;2024485;29;20123;-59
2022/05/22 00:36:12;;;;;;;8.32;5.20;;;;;;;;;;2040740;29;20035;-60
2022/05/22 00:37:13;;;;;;;7.45;4.40;;;;;;;;;;2048357;28;20050;-59
2022/05/22 00:38:14;;;;;;;8.55;4.97;;;;;;;;;;2031836;29;20043;-60
2022/05/22 00:39:16;;;;;;;6.63;4.50;;;;;;;;;;2032545;29;20032;-61
2022/05/22 00:40:18;;;;;;;7.15;4.57;;;;;;;;;;2039076;29;20032;-58
2022/05/22 00:41:19;;;;;;;7.10;4.32;;;;;;;;;;2048614;28;20046;-61
2022/05/22 00:42:20;;;;;;;9.68;4.50;;;;;;;;;;2047928;29;20521;-59
2022/05/22 00:43:23;;;;;;;9.73;5.30;;;;;;;;;;2047895;29;20419;-60
2022/05/22 00:44:24;;;;;;;24.90;5.07;;;;;;;;;;2047729;29;20039;-61
2022/05/22 00:45:25;;;;;;;6.18;4.50;;;;;;;;;;2040195;29;20050;-59
2022/05/22 00:46:29;;;;;;;7.85;4.45;;;;;;;;;;2035789;29;20046;-61
2022/05/22 00:47:30;;;;;;;7.75;4.95;;;;;;;;;;2032402;29;20041;-60
2022/05/22 00:48:31;;;;;;;7.25;4.63;;;;;;;;;;2030929;29;20111;-61
2022/05/22 00:49:33;;;;;;;6.20;4.57;;;;;;;;;;2031587;29;20055;-59
2022/05/22 00:50:34;;;;;;;7.40;4.30;;;;;;;;;;2040276;29;20043;-61
2022/05/22 00:51:38;;;;;;;6.93;4.70;;;;;;;;;;2040113;29;20043;-61
2022/05/22 00:52:39;;;;;;;7.95;5.00;;;;;;;;;;2047567;29;20406;-61
2022/05/22 00:53:41;;;;;;;8.07;4.75;;;;;;;;;;2047799;29;20050;-61
2022/05/22 00:54:46;;;;;;;9.30;4.95;;;;;;;;;;2047551;29;20055;-60
2022/05/22 00:55:46;;;;;;;9.63;5.43;;;;;;;;;;2047719;29;20461;-61
2022/05/22 00:56:52;;;;;;;8.75;5.13;;;;;;;;;;2047547;29;20055;-58
2022/05/22 00:57:55;;;;;;;9.88;4.82;;;;;;;;;;2047737;29;20437;-59
2022/05/22 00:58:56;;;;;;;8.98;5.13;;;;;;;;;;2047296;29;20054;-59
2022/05/22 00:59:59;;;;;;;6.82;4.68;;;;;;;;;;2047373;28;20050;-59
2022/05/22 01:01:00;;;;;;;8.23;5.28;;;;;;;;;;2033538;29;20470;-61
2022/05/22 01:02:02;;;;;;;8.02;4.60;;;;;;;;;;2034280;29;20040;-61
2022/05/22 01:04:27;;;;;;;7.53;4.57;;;;;;;;;;2046451;29;20055;-60
2022/05/22 01:05:29;;;;;;;9.30;5.00;;;;;;;;;;2033606;29;20047;-59
2022/05/22 01:06:30;;;;;;;8.55;4.75;;;;;;;;;;2033805;29;20044;-59
2022/05/22 01:07:34;;;;;;;8.75;4.90;;;;;;;;;;2048809;28;20764;-59
2022/05/22 01:08:35;;;;;;;7.85;4.30;;;;;;;;;;2049288;29;20406;-59
2022/05/22 01:09:36;;;;;;;6.57;4.38;;;;;;;;;;2048775;28;20078;-61
2022/05/22 01:10:44;;;;;;;8.25;4.38;;;;;;;;;;2041619;29;20545;-59
2022/05/22 01:11:44;;;;;;;8.43;4.28;;;;;;;;;;2042027;29;20039;-60
2022/05/22 01:12:45;;;;;;;10.75;4.38;;;;;;;;;;2049290;29;20046;-61
2022/05/22 01:13:48;;;;;;;6.57;4.00;;;;;;;;;;2033564;29;20679;-61
2022/05/22 01:14:49;;;;;;;8.85;4.47;;;;;;;;;;2041051;29;20043;-61
2022/05/22 01:15:50;;;;;;;8.50;3.80;;;;;;;;;;2048938;29;20062;-59
2022/05/22 01:16:51;;;;;;;5.82;3.95;;;;;;;;;;2033652;29;20052;-61
2022/05/22 01:17:53;;;;;;;6.07;3.92;;;;;;;;;;2018664;29;20053;-61
2022/05/22 01:18:56;;;;;;;7.28;4.00;;;;;;;;;;2018461;29;20049;-61
2022/05/22 01:20:07;;;;;;;6.65;4.30;;;;;;;;;;2034193;29;20406;-62
2022/05/22 01:21:10;;;;;;;5.15;3.97;;;;;;;;;;2036948;29;20121;-59
2022/05/22 01:22:12;;;;;;;6.93;4.25;;;;;;;;;;2041452;29;20092;-60
2022/05/22 01:23:15;;;;;;;6.28;4.28;;;;;;;;;;2033931;29;20403;-59
2022/05/22 01:24:16;;;;;;;10.38;3.55;;;;;;;;;;2033151;29;20048;-61
2022/05/22 01:25:17;;;;;;;11.18;4.28;;;;;;;;;;2033511;29;20131;-60
2022/05/22 01:26:18;;;;;;;9.05;4.07;;;;;;;;;;2046877;29;20047;-60
2022/05/22 01:27:19;;;;;;;10.40;4.40;;;;;;;;;;2041601;29;20047;-61
2022/05/22 01:28:25;;;;;;;6.40;3.25;;;;;;;;;;2033582;29;20048;-61
2022/05/22 01:29:28;;;;;;;8.82;3.95;;;;;;;;;;2039463;29;20051;-59
2022/05/22 01:30:29;;;;;;;7.70;4.00;;;;;;;;;;2040971;29;20144;-61
2022/05/22 01:31:36;;;;;;;7.13;4.13;;;;;;;;;;2042907;29;20032;-60
2022/05/22 01:32:40;;;;;;;8.10;4.25;;;;;;;;;;2033569;29;20118;-61
2022/05/22 01:33:42;;;;;;;10.18;4.38;;;;;;;;;;2034585;29;20052;-59
2022/05/22 01:34:43;;;;;;;7.07;4.28;;;;;;;;;;2039023;29;20052;-58
2022/05/22 01:35:45;;;;;;;6.85;3.55;;;;;;;;;;2036474;29;20047;-59
2022/05/22 01:36:46;;;;;;;7.25;4.35;;;;;;;;;;2044749;29;20043;-60
2022/05/22 01:37:48;;;;;;;7.88;3.90;;;;;;;;;;2038514;29;20064;-60
2022/05/22 01:38:49;;;;;;;12.35;3.97;;;;;;;;;;2032947;29;20049;-61
2022/05/22 01:39:52;;;;;;;6.95;4.10;;;;;;;;;;2032988;29;20044;-60
2022/05/22 01:40:53;;;;;;;7.03;4.28;;;;;;;;;;2033771;29;20048;-61
2022/05/22 01:42:04;;;;;;;9.40;4.32;;;;;;;;;;2042590;29;20051;-61
2022/05/22 01:43:06;;;;;;;7.78;4.50;;;;;;;;;;2033544;29;20036;-60
2022/05/22 01:44:09;;;;;;;9.02;4.15;;;;;;;;;;2033661;29;20068;-61
2022/05/22 01:45:10;;;;;;;6.07;3.88;;;;;;;;;;2033788;29;20471;-59
2022/05/22 01:46:11;;;;;;;7.88;5.20;;;;;;;;;;2033664;29;20039;-60
2022/05/22 01:47:14;;;;;;;6.57;4.20;;;;;;;;;;2033919;29;20498;-59
2022/05/22 01:48:14;;;;;;;5.90;4.10;;;;;;;;;;2045326;29;20047;-59
2022/05/22 01:49:18;;;;;;;6.47;4.50;;;;;;;;;;2033486;29;20557;-60
2022/05/22 01:50:21;;;;;;;5.60;3.90;;;;;;;;;;2032149;29;20048;-61
2022/05/22 01:51:22;;;;;;;8.30;3.97;;;;;;;;;;2033773;29;20044;-59
2022/05/22 01:52:23;;;;;;;5.55;4.10;;;;;;;;;;2041030;29;20065;-59
2022/05/22 01:53:24;;;;;;;7.55;4.40;;;;;;;;;;2033380;29;20060;-59
2022/05/22 01:54:25;;;;;;;7.10;4.50;;;;;;;;;;2026034;29;20041;-58
2022/05/22 01:55:27;;;;;;;7.10;4.30;;;;;;;;;;2033341;29;20806;-60
2022/05/22 01:56:28;;;;;;;6.07;4.25;;;;;;;;;;2041344;29;20078;-60
2022/05/22 01:57:30;;;;;;;9.25;4.65;;;;;;;;;;2033218;29;20052;-59
2022/05/22 01:58:32;;;;;;;7.45;4.20;;;;;;;;;;2025232;29;20044;-60
2022/05/22 01:59:33;;;;;;;7.15;4.07;;;;;;;;;;2032771;29;20152;-61
2022/05/22 02:00:48;;;;;;;7.72;4.50;;;;;;;;;;2035084;29;20048;-59
2022/05/22 02:01:49;;;;;;;8.30;5.05;;;;;;;;;;2040560;29;20040;-59
2022/05/22 02:02:50;;;;;;;6.05;3.95;;;;;;;;;;2041931;29;20522;-59
2022/05/22 02:04:01;;;;;;;6.82;4.93;;;;;;;;;;2034559;28;20048;-60
2022/05/22 02:05:06;;;;;;;8.23;5.03;;;;;;;;;;2048320;29;20043;-59
2022/05/22 02:06:07;;;;;;;6.68;4.50;;;;;;;;;;2041247;29;20031;-61
2022/05/22 02:08:31;;;;;;;5.60;4.13;;;;;;;;;;2035998;29;20040;-60
2022/05/22 02:09:34;;;;;;;6.70;4.63;;;;;;;;;;2035955;29;20044;-58
2022/05/22 02:10:35;;;;;;;7.05;4.82;;;;;;;;;;2033550;29;20044;-59
2022/05/22 02:11:38;;;;;;;9.35;4.93;;;;;;;;;;2041266;29;20042;-59
2022/05/22 02:12:39;;;;;;;6.93;4.57;;;;;;;;;;2040830;29;20044;-60
2022/05/22 02:13:44;;;;;;;7.47;4.90;;;;;;;;;;2048857;29;20461;-60
2022/05/22 02:14:45;;;;;;;5.93;4.43;;;;;;;;;;2041412;29;20517;-59
2022/05/22 02:15:49;;;;;;;8.48;4.60;;;;;;;;;;2033178;29;20044;-59
2022/05/22 02:16:50;;;;;;;7.88;4.90;;;;;;;;;;2025016;29;20136;-61
2022/05/22 02:17:51;;;;;;;7.68;4.85;;;;;;;;;;2025262;29;20177;-60
2022/05/22 02:18:52;;;;;;;9.23;4.60;;;;;;;;;;2025122;29;20037;-59
2022/05/22 02:19:54;;;;;;;7.90;4.90;;;;;;;;;;2025524;29;20045;-60
2022/05/22 02:21:15;;;;;;;10.13;4.53;;;;;;;;;;2045480;28;20035;-60
2022/05/22 02:22:17;;;;;;;8.70;4.90;;;;;;;;;;2047511;29;20136;-60
2022/05/22 02:23:18;;;;;;;9.20;4.75;;;;;;;;;;2033405;29;20080;-60
2022/05/22 02:24:19;;;;;;;8.48;4.88;;;;;;;;;;2033426;29;20043;-60
2022/05/22 02:25:37;;;;;;;9.50;4.53;;;;;;;;;;2034745;29;20052;-61
2022/05/22 02:26:41;;;;;;;9.93;4.88;;;;;;;;;;2040793;29;20497;-59
2022/05/22 02:27:47;;;;;;;11.38;4.75;;;;;;;;;;2039637;29;20039;-60
2022/05/22 02:28:48;;;;;;;11.55;4.43;;;;;;;;;;2033254;29;20494;-59
2022/05/22 02:29:50;;;;;;;7.47;4.20;;;;;;;;;;2033259;29;20059;-61
2022/05/22 02:30:52;;;;;;;6.38;4.70;;;;;;;;;;2024085;29;20384;-59
2022/05/22 02:31:54;;;;;;;8.43;4.95;;;;;;;;;;2025656;29;20553;-59
2022/05/22 02:32:54;;;;;;;10.50;4.78;;;;;;;;;;2032813;29;20110;-59
2022/05/22 02:33:56;;;;;;;8.23;4.65;;;;;;;;;;2041153;29;20040;-59
2022/05/22 02:34:57;;;;;;;6.28;4.43;;;;;;;;;;2040105;29;20044;-59
2022/05/22 02:36:00;;;;;;;11.05;4.72;;;;;;;;;;2048492;29;20111;-59
2022/05/22 02:37:06;;;;;;;8.77;4.90;;;;;;;;;;2034185;29;20044;-60
2022/05/22 02:38:07;;;;;;;8.93;4.47;;;;;;;;;;2041604;29;20040;-58
2022/05/22 02:39:18;;;;;;;12.25;4.82;;;;;;;;;;2040834;29;20530;-61
2022/05/22 02:40:21;;;;;;;7.30;4.53;;;;;;;;;;2032824;29;20055;-59
2022/05/22 02:41:26;;;;;;;6.82;4.53;;;;;;;;;;2025860;29;20040;-60
2022/05/22 02:42:29;;;;;;;8.63;4.53;;;;;;;;;;2025986;29;20545;-59
2022/05/22 02:43:30;;;;;;;12.05;4.90;;;;;;;;;;2040802;29;20082;-60
2022/05/22 02:44:32;;;;;;;6.32;4.22;;;;;;;;;;2033127;29;20048;-59
2022/05/22 02:45:34;;;;;;;7.63;4.53;;;;;;;;;;2033091;29;20052;-59
2022/05/22 02:46:40;;;;;;;8.32;4.40;;;;;;;;;;2034494;29;20399;-60
2022/05/22 02:47:41;;;;;;;8.07;4.90;;;;;;;;;;2040624;29;20055;-61
2022/05/22 02:48:42;;;;;;;12.02;4.63;;;;;;;;;;2032697;29;20545;-59
2022/05/22 02:49:44;;;;;;;7.55;4.65;;;;;;;;;;2024631;29;20471;-60
2022/05/22 02:50:45;;;;;;;8.43;4.43;;;;;;;;;;2025335;29;20060;-61
2022/05/22 02:51:47;;;;;;;9.00;4.30;;;;;;;;;;2033114;29;20419;-58
2022/05/22 02:52:48;;;;;;;8.25;4.63;;;;;;;;;;2033103;29;20067;-60
2022/05/22 02:53:51;;;;;;;6.50;4.65;;;;;;;;;;2025888;29;20420;-59
2022/05/22 02:54:59;;;;;;;7.20;4.65;;;;;;;;;;2034648;29;20040;-60
2022/05/22 02:56:08;;;;;;;11.23;4.95;;;;;;;;;;2040664;29;20123;-59
2022/05/22 02:57:22;;;;;;;8.20;4.93;;;;;;;;;;2043331;29;20039;-59
2022/05/22 02:58:28;;;;;;;9.18;4.95;;;;;;;;;;2034017;29;20051;-62
2022/05/22 02:59:31;;;;;;;8.60;4.68;;;;;;;;;;2035424;29;20036;-61
2022/05/22 03:00:43;;;;;;;9.15;5.07;;;;;;;;;;2040246;29;20047;-60
2022/05/22 03:01:44;;;;;;;7.15;4.75;;;;;;;;;;2035907;29;20123;-58
2022/05/22 03:02:45;;;;;;;7.65;4.60;;;;;;;;;;2046864;28;21341;-62
2022/05/22 03:03:46;;;;;;;7.75;5.00;;;;;;;;;;2048447;29;20122;-58
2022/05/22 03:04:48;;;;;;;8.35;5.18;;;;;;;;;;2034370;29;20499;-59
2022/05/22 03:08:11;;;;;;;7.63;4.90;;;;;;;;;;2031229;29;20032;-61
2022/05/22 03:09:15;;;;;;;8.40;5.20;;;;;;;;;;2033193;29;20226;-61
2022/05/22 03:10:19;;;;;;;8.20;5.20;;;;;;;;;;2026117;29;20044;-61
2022/05/22 03:11:21;;;;;;;8.73;5.47;;;;;;;;;;2025681;29;20056;-61
2022/05/22 03:12:23;;;;;;;12.20;5.00;;;;;;;;;;2024764;29;20056;-59
2022/05/22 03:13:27;;;;;;;7.82;4.82;;;;;;;;;;2033815;29;20040;-60
2022/05/22 03:14:28;;;;;;;8.85;4.90;;;;;;;;;;2041058;28;20044;-59
2022/05/22 03:15:29;;;;;;;14.32;5.72;;;;;;;;;;2025546;29;20044;-61
2022/05/22 03:16:30;;;;;;;13.70;5.82;;;;;;;;;;2016619;29;20053;-58
2022/05/22 03:17:52;;;;;;;9.20;5.75;;;;;;;;;;2038066;29;20047;-59
2022/05/22 03:18:53;;;;;;;9.65;5.82;;;;;;;;;;2032076;29;20054;-59
2022/05/22 03:19:54;;;;;;;10.20;5.95;;;;;;;;;;2038877;29;20059;-59
2022/05/22 03:20:55;;;;;;;9.32;5.75;;;;;;;;;;2031624;29;20622;-59
2022/05/22 03:21:56;;;;;;;8.75;6.13;;;;;;;;;;2023324;29;20534;-59
2022/05/22 03:22:58;;;;;;;7.63;5.20;;;;;;;;;;2025266;29;20052;-59
2022/05/22 03:23:58;;;;;;;7.68;5.30;;;;;;;;;;2031237;29;20052;-60
2022/05/22 03:24:59;;;;;;;9.00;5.80;;;;;;;;;;2032645;29;20414;-59
2022/05/22 03:26:02;;;;;;;9.73;5.47;;;;;;;;;;2032754;29;20052;-59
2022/05/22 03:27:04;;;;;;;7.15;5.00;;;;;;;;;;2025384;29;20048;-59
2022/05/22 03:28:05;;;;;;;10.45;5.90;;;;;;;;;;2025467;29;20064;-60
2022/05/22 03:29:11;;;;;;;8.90;6.07;;;;;;;;;;2032809;29;20060;-59
2022/05/22 03:30:12;;;;;;;8.43;5.47;;;;;;;;;;2032482;29;20067;-59
2022/05/22 03:31:16;;;;;;;9.68;5.60;;;;;;;;;;2039809;29;20044;-59
2022/05/22 03:32:17;;;;;;;11.32;5.45;;;;;;;;;;2029487;29;20070;-59
2022/05/22 03:33:18;;;;;;;6.50;4.90;;;;;;;;;;2040296;29;20131;-60
2022/05/22 03:34:26;;;;;;;8.80;5.18;;;;;;;;;;2045828;29;20095;-60
2022/05/22 03:35:30;;;;;;;7.65;5.28;;;;;;;;;;2033224;29;20051;-60
2022/05/22 03:36:39;;;;;;;10.40;5.65;;;;;;;;;;2035194;29;20074;-60
2022/05/22 03:37:41;;;;;;;9.32;5.50;;;;;;;;;;2037508;29;20419;-59
2022/05/22 03:38:43;;;;;;;9.73;5.55;;;;;;;;;;2024325;29;20048;-61
2022/05/22 03:39:44;;;;;;;9.10;5.18;;;;;;;;;;2039549;29;20098;-60
2022/05/22 03:40:46;;;;;;;11.50;6.13;;;;;;;;;;2040807;29;20048;-61
2022/05/22 03:41:47;;;;;;;10.18;5.47;;;;;;;;;;2032798;29;20048;-61
2022/05/22 03:42:51;;;;;;;8.07;5.57;;;;;;;;;;2032879;29;20040;-60
2022/05/22 03:43:52;;;;;;;8.63;5.85;;;;;;;;;;2046186;29;20043;-59
2022/05/22 03:45:13;;;;;;;8.80;4.88;;;;;;;;;;2034921;29;20043;-59
2022/05/22 03:46:16;;;;;;;10.32;5.18;;;;;;;;;;2030382;29;20033;-59
2022/05/22 03:47:21;;;;;;;8.57;5.43;;;;;;;;;;2047351;23;20032;-68
2022/05/22 03:48:32;;;;;;;6.00;4.90;;;;;;;;;;2051879;28;20047;-64
2022/05/22 03:49:32;;;;;;;7.57;5.65;;;;;;;;;;2050298;28;20039;-63
2022/05/22 03:50:33;;;;;;;9.40;5.10;;;;;;;;;;2056235;28;20047;-67
2022/05/22 03:51:35;;;;;;;8.48;5.82;;;;;;;;;;2054984;28;20034;-63
2022/05/22 03:52:37;;;;;;;7.63;5.07;;;;;;;;;;2056528;28;20398;-63
2022/05/22 03:53:40;;;;;;;8.07;5.13;;;;;;;;;;2048780;28;20410;-65
2022/05/22 03:54:49;;;;;;;8.15;5.28;;;;;;;;;;2057623;28;20043;-66
2022/05/22 03:55:50;;;;;;;7.30;5.60;;;;;;;;;;2069006;28;20041;-66
2022/05/22 03:56:56;;;;;;;10.45;6.28;;;;;;;;;;2048262;29;20051;-65
2022/05/22 03:58:00;;;;;;;9.20;5.65;;;;;;;;;;2041240;29;20656;-63
2022/05/22 03:59:02;;;;;;;8.98;5.43;;;;;;;;;;2048151;29;20062;-65
2022/05/22 04:00:04;;;;;;;8.85;5.18;;;;;;;;;;2047701;29;20051;-64
2022/05/22 04:01:07;;;;;;;5.38;4.80;;;;;;;;;;2039474;29;20340;-64
2022/05/22 04:02:15;;;;;;;9.80;5.97;;;;;;;;;;2033507;29;20047;-64
2022/05/22 04:03:17;;;;;;;7.95;5.20;;;;;;;;;;2042004;28;20050;-64
2022/05/22 04:04:20;;;;;;;8.95;6.13;;;;;;;;;;2040457;29;20047;-66
2022/05/22 04:05:21;;;;;;;12.07;5.65;;;;;;;;;;2040679;29;20039;-64
2022/05/22 04:06:23;;;;;;;8.57;5.47;;;;;;;;;;2032339;29;20044;-64
2022/05/22 04:07:25;;;;;;;9.88;6.03;;;;;;;;;;2032470;29;20040;-64
2022/05/22 04:08:29;;;;;;;8.93;5.53;;;;;;;;;;2032547;29;20569;-63
2022/05/22 04:09:30;;;;;;;9.40;5.32;;;;;;;;;;2032827;29;20047;-66
2022/05/22 04:10:37;;;;;;;7.97;6.22;;;;;;;;;;2040636;29;20044;-64
2022/05/22 04:11:39;;;;;;;7.85;5.60;;;;;;;;;;2048696;28;20039;-65
2022/05/22 04:12:42;;;;;;;9.00;6.00;;;;;;;;;;2048018;29;20051;-65
2022/05/22 04:13:43;;;;;;;7.47;5.65;;;;;;;;;;2040629;29;20525;-65
2022/05/22 04:14:44;;;;;;;9.85;5.72;;;;;;;;;;2040114;29;20048;-65
2022/05/22 04:15:46;;;;;;;8.57;5.38;;;;;;;;;;2033029;29;20044;-67
2022/05/22 04:16:48;;;;;;;8.80;5.82;;;;;;;;;;2032077;29;20487;-64
2022/05/22 04:17:49;;;;;;;7.10;5.80;;;;;;;;;;2040559;29;20421;-65
2022/05/22 04:18:54;;;;;;;10.82;5.63;;;;;;;;;;2033664;29;20069;-65
2022/05/22 04:19:55;;;;;;;9.40;5.68;;;;;;;;;;2047628;29;20576;-65
2022/05/22 04:20:56;;;;;;;9.63;5.57;;;;;;;;;;2047866;29;20529;-65
2022/05/22 04:22:17;;;;;;;9.00;5.70;;;;;;;;;;2050211;28;20054;-65
2022/05/22 04:26:01;;;;;;;7.50;5.45;;;;;;;;;;2042433;29;20054;-65
2022/05/22 04:27:03;;;;;;;11.82;5.88;;;;;;;;;;2050647;28;20051;-63
2022/05/22 04:28:04;;;;;;;10.63;5.25;;;;;;;;;;2048011;29;20494;-65
2022/05/22 04:29:05;;;;;;;11.88;5.95;;;;;;;;;;2039293;29;20031;-65
2022/05/22 04:30:07;;;;;;;7.07;5.15;;;;;;;;;;2047759;29;20051;-65
2022/05/22 04:31:17;;;;;;;9.32;5.00;;;;;;;;;;2049730;28;20046;-66
2022/05/22 04:32:38;;;;;;;6.68;4.47;;;;;;;;;;2055742;28;20443;-64
2022/05/22 04:33:39;;;;;;;11.07;5.35;;;;;;;;;;2050619;28;20093;-64
2022/05/22 04:34:40;;;;;;;8.27;5.25;;;;;;;;;;2047996;29;20430;-64
2022/05/22 04:35:44;;;;;;;9.27;5.50;;;;;;;;;;2040986;29;20412;-65
2022/05/22 04:36:45;;;;;;;7.65;5.00;;;;;;;;;;2027523;29;20045;-63
2022/05/22 04:38:03;;;;;;;8.23;5.40;;;;;;;;;;2037977;29;20036;-64
2022/05/22 04:39:05;;;;;;;7.22;4.82;;;;;;;;;;2033675;29;20499;-64
2022/05/22 04:40:07;;;;;;;10.48;4.65;;;;;;;;;;2033793;29;20037;-65
2022/05/22 04:41:08;;;;;;;7.25;5.18;;;;;;;;;;2050413;28;20040;-66
2022/05/22 04:42:08;;;;;;;8.15;4.93;;;;;;;;;;2057207;28;20062;-65
2022/05/22 04:43:11;;;;;;;9.82;5.28;;;;;;;;;;2048757;29;20035;-65
2022/05/22 04:44:12;;;;;;;9.48;4.95;;;;;;;;;;2049243;29;20106;-65
2022/05/22 04:45:13;;;;;;;7.93;5.15;;;;;;;;;;2047232;29;20067;-64
2022/05/22 04:46:19;;;;;;;7.93;5.15;;;;;;;;;;2043271;28;20404;-65
2022/05/22 04:47:20;;;;;;;6.80;5.05;;;;;;;;;;2057202;28;20122;-66
2022/05/22 04:48:41;;;;;;;8.50;5.15;;;;;;;;;;2045993;29;20054;-63
2022/05/22 04:49:42;;;;;;;12.25;5.40;;;;;;;;;;2038713;29;20103;-64
2022/05/22 04:50:45;;;;;;;7.70;5.20;;;;;;;;;;2041953;29;20036;-64
2022/05/22 04:51:58;;;;;;;7.32;4.63;;;;;;;;;;2043172;29;20050;-63
2022/05/22 04:52:59;;;;;;;6.85;4.80;;;;;;;;;;2033820;29;20032;-64
2022/05/22 04:54:00;;;;;;;9.75;5.38;;;;;;;;;;2033740;29;20043;-65
2022/05/22 04:55:08;;;;;;;8.73;5.80;;;;;;;;;;2035231;29;20042;-63
2022/05/22 04:56:09;;;;;;;13.27;6.20;;;;;;;;;;2049925;28;20054;-61
2022/05/22 04:57:30;;;;;;;8.05;5.03;;;;;;;;;;2049164;29;20453;-64
2022/05/22 04:58:31;;;;;;;6.80;5.78;;;;;;;;;;2028403;29;20526;-64
2022/05/22 04:59:38;;;;;;;9.05;5.32;;;;;;;;;;2036435;28;20048;-64
2022/05/22 05:00:39;;;;;;;8.82;5.60;;;;;;;;;;2033192;29;20175;-65
2022/05/22 05:01:44;;;;;;;9.43;5.18;;;;;;;;;;2028072;29;20051;-64
2022/05/22 05:02:51;;;;;;;8.60;5.43;;;;;;;;;;2034766;29;20180;-64
2022/05/22 05:03:52;;;;;;;7.25;5.32;;;;;;;;;;2042717;29;20063;-64
2022/05/22 05:04:54;;;;;;;8.65;4.90;;;;;;;;;;2040993;29;20043;-64
2022/05/22 05:06:06;;;;;;;6.72;4.93;;;;;;;;;;2033817;29;20666;-64
2022/05/22 05:07:08;;;;;;;8.43;5.53;;;;;;;;;;2035395;29;20066;-64
2022/05/22 05:08:30;;;;;;;10.45;5.00;;;;;;;;;;2043709;29;20039;-65
2022/05/22 05:09:34;;;;;;;8.95;5.65;;;;;;;;;;2044664;29;20039;-65
2022/05/22 05:10:43;;;;;;;8.80;4.68;;;;;;;;;;2042541;29;20433;-64
2022/05/22 05:11:52;;;;;;;6.55;4.95;;;;;;;;;;2050430;28;20497;-65
2022/05/22 05:12:53;;;;;;;8.55;5.20;;;;;;;;;;2047817;29;20071;-66
2022/05/22 05:14:01;;;;;;;6.60;4.88;;;;;;;;;;2042193;29;20062;-65
2022/05/22 05:15:02;;;;;;;9.57;5.18;;;;;;;;;;2041319;29;20039;-65
2022/05/22 05:16:05;;;;;;;8.10;5.50;;;;;;;;;;2041559;29;20043;-65
2022/05/22 05:17:13;;;;;;;6.57;4.57;;;;;;;;;;2035733;29;20446;-64
2022/05/22 05:18:14;;;;;;;7.85;4.95;;;;;;;;;;2041972;29;20282;-65
2022/05/22 05:19:15;;;;;;;8.75;4.90;;;;;;;;;;2033515;29;20040;-64
2022/05/22 05:20:18;;;;;;;10.00;5.00;;;;;;;;;;2033590;29;20044;-64
2022/05/22 05:21:26;;;;;;;5.72;4.32;;;;;;;;;;2035512;29;20478;-66
2022/05/22 05:22:31;;;;;;;8.50;5.03;;;;;;;;;;2042239;29;20043;-64
2022/05/22 05:23:42;;;;;;;8.10;4.88;;;;;;;;;;2049104;29;20071;-64
2022/05/22 05:24:48;;;;;;;7.68;4.80;;;;;;;;;;2026964;29;20590;-64
2022/05/22 05:25:49;;;;;;;10.43;4.88;;;;;;;;;;2034065;29;20055;-64
2022/05/22 05:26:51;;;;;;;6.57;4.80;;;;;;;;;;2034872;29;20055;-65
2022/05/22 05:27:53;;;;;;;9.82;4.53;;;;;;;;;;2049341;28;20521;-64
2022/05/22 05:28:56;;;;;;;7.60;4.68;;;;;;;;;;2057055;28;20720;-64
2022/05/22 05:30:03;;;;;;;7.25;4.25;;;;;;;;;;2057196;28;20038;-64
2022/05/22 05:31:07;;;;;;;6.28;4.63;;;;;;;;;;2056408;28;20046;-64
2022/05/22 05:32:09;;;;;;;8.43;4.75;;;;;;;;;;2041887;28;20043;-64
2022/05/22 05:33:10;;;;;;;7.68;4.20;;;;;;;;;;2049620;29;20050;-65
2022/05/22 05:34:31;;;;;;;6.22;4.50;;;;;;;;;;2051466;28;20103;-64
2022/05/22 05:35:35;;;;;;;11.65;4.85;;;;;;;;;;2051914;28;20046;-66
2022/05/22 05:36:40;;;;;;;6.40;4.63;;;;;;;;;;2042307;29;20055;-64
2022/05/22 05:37:43;;;;;;;6.78;4.88;;;;;;;;;;2041960;28;20040;-64
2022/05/22 05:38:44;;;;;;;6.00;4.20;;;;;;;;;;2057155;28;20051;-64
2022/05/22 05:39:50;;;;;;;7.55;4.47;;;;;;;;;;2056826;28;20433;-67
2022/05/22 05:41:01;;;;;;;7.18;4.75;;;;;;;;;;2042257;29;20050;-67
2022/05/22 05:42:02;;;;;;;7.03;4.68;;;;;;;;;;2049925;28;20035;-65
2022/05/22 05:43:07;;;;;;;6.47;4.28;;;;;;;;;;2049101;29;20075;-64
2022/05/22 05:44:09;;;;;;;7.43;4.85;;;;;;;;;;2048740;28;20445;-66
2022/05/22 05:45:21;;;;;;;5.53;4.60;;;;;;;;;;2049143;29;20050;-65
2022/05/22 05:46:27;;;;;;;9.00;4.85;;;;;;;;;;2046604;28;20509;-67
2022/05/22 05:47:29;;;;;;;7.60;4.63;;;;;;;;;;2050271;28;20039;-65
2022/05/22 05:48:45;;;;;;;5.22;4.53;;;;;;;;;;2062357;28;20447;-66
2022/05/22 05:49:46;;;;;;;6.07;4.85;;;;;;;;;;2062203;28;20093;-64
2022/05/22 05:50:57;;;;;;;5.95;4.50;;;;;;;;;;2056756;28;20516;-64
2022/05/22 05:52:05;;;;;;;7.70;4.70;;;;;;;;;;2050450;28;20441;-67
2022/05/22 05:53:09;;;;;;;8.98;5.18;;;;;;;;;;2049071;29;20050;-66
2022/05/22 05:54:29;;;;;;;8.68;5.00;;;;;;;;;;2047290;28;20789;-65
2022/05/22 05:55:36;;;;;;;7.57;5.07;;;;;;;;;;2052017;28;20428;-64
2022/05/22 05:56:58;;;;;;;8.10;4.88;;;;;;;;;;2052094;28;20054;-63
2022/05/22 05:58:03;;;;;;;10.43;5.20;;;;;;;;;;2051886;28;20042;-65
2022/05/22 05:59:05;;;;;;;7.55;4.82;;;;;;;;;;2040741;29;20118;-66
2022/05/22 06:00:09;;;;;;;6.07;4.15;;;;;;;;;;2048814;29;20102;-65
2022/05/22 06:01:16;;;;;;;6.72;4.28;;;;;;;;;;2049528;28;20043;-64
2022/05/22 06:02:18;;;;;;;8.93;4.53;;;;;;;;;;2049400;28;20039;-64
2022/05/22 06:03:19;;;;;;;11.52;4.93;;;;;;;;;;2042083;28;20051;-65
2022/05/22 06:04:26;;;;;;;6.03;4.22;;;;;;;;;;2050167;28;20043;-67
2022/05/22 06:05:27;;;;;;;6.40;3.85;;;;;;;;;;2049450;28;20047;-65
2022/05/22 06:06:28;;;;;;;6.18;4.55;;;;;;;;;;2033208;29;20431;-66
2022/05/22 06:07:32;;;;;;;7.03;4.65;;;;;;;;;;2033774;29;20430;-64
2022/05/22 06:08:33;;;;;;;9.10;4.15;;;;;;;;;;2025797;29;20045;-64
2022/05/22 06:09:54;;;;;;;8.05;4.55;;;;;;;;;;2032949;29;20051;-65
2022/05/22 06:11:04;;;;;;;8.05;4.38;;;;;;;;;;2048821;29;20516;-66
2022/05/22 06:12:05;;;;;;;7.75;4.30;;;;;;;;;;2049812;28;20089;-64
2022/05/22 06:13:09;;;;;;;13.38;5.10;;;;;;;;;;2049141;28;20658;-63
2022/05/22 06:14:10;;;;;;;6.00;4.30;;;;;;;;;;2041054;29;20039;-65
2022/05/22 06:15:13;;;;;;;7.32;4.03;;;;;;;;;;2033389;29;20037;-65
2022/05/22 06:16:14;;;;;;;7.07;4.38;;;;;;;;;;2033772;29;20450;-65
2022/05/22 06:17:29;;;;;;;6.15;4.13;;;;;;;;;;2042519;29;20043;-65
2022/05/22 06:18:30;;;;;;;7.50;4.32;;;;;;;;;;2048956;29;20051;-64
2022/05/22 06:21:17;;;;;;;5.57;4.18;;;;;;;;;;2048900;29;20035;-64
2022/05/22 06:22:19;;;;;;;7.10;4.25;;;;;;;;;;2043224;29;20538;-65
2022/05/22 06:23:22;;;;;;;5.93;4.28;;;;;;;;;;2041261;29;20040;-65
2022/05/22 06:24:43;;;;;;;7.20;4.03;;;;;;;;;;2044051;29;20517;-65
2022/05/22 06:26:05;;;;;;;5.65;3.70;;;;;;;;;;2046101;29;20046;-64
2022/05/22 06:27:17;;;;;;;6.57;3.58;;;;;;;;;;2037668;29;20143;-66
2022/05/22 06:28:37;;;;;;;7.90;4.25;;;;;;;;;;2047579;28;20087;-65
2022/05/22 06:29:44;;;;;;;6.18;3.63;;;;;;;;;;2049024;29;20047;-64
2022/05/22 06:30:55;;;;;;;8.30;4.47;;;;;;;;;;2043184;29;20565;-65